Terminal Aerodrome Forecast
Issued by NWS North Platte, NE

Home | Current Version | Previous Version | Graphics & Text | Print | Product List | Glossary On
Versions: 1 2 3 4 5 6 7 8 9 10 11 12 13 14 15 16 17 18 19
561
FTUS43 KLBF 141733
TAFVTN
TAF
KVTN 141733Z 1418/1518 11012G18KT P6SM SCT250
     FM150000 10010KT P6SM SCT050 BKN100 PROB30 1504/1508 P6SM -TSRA
      OVC100CB
     FM150900 12006KT 3SM BR OVC020
     FM151700 14008KT P6SM BKN100=

USA.gov is the U.S. government's official web portal to all federal, state and local government web resources and services.